Time;durP1;ratioP1;P1;durP2;ratioP2;P2;SDS_P1;SDS_P2;PMS_P1;PMS_P2;Temp;Humidity;BMP_temperature;BMP_pressure;BME280_temperature;BME280_humidity;BME280_pressure;Samples;Min_cycle;Max_cycle;Signal;HPM_P1;HPM_P2
2022/08/22 00:00:13;;;;;;;8.82;2.70;;;;;;;21.83;71.50;97851.47;4473633;32;20150;-85
2022/08/22 00:03:02;;;;;;;7.30;2.58;;;;;;;21.93;71.07;97848.56;4473798;32;20109;-84
2022/08/22 00:05:32;;;;;;;7.78;2.67;;;;;;;21.76;71.46;97850.50;4487558;32;20114;-83
2022/08/22 00:08:13;;;;;;;8.48;2.70;;;;;;;21.75;70.93;97848.81;4487581;32;20388;-84
2022/08/22 00:10:53;;;;;;;10.15;2.70;;;;;;;21.99;70.04;97848.66;4487499;32;20089;-83
2022/08/22 00:13:43;;;;;;;7.87;2.65;;;;;;;22.03;69.85;97851.81;4473144;32;20116;-84
2022/08/22 00:16:14;;;;;;;6.78;2.70;;;;;;;;;;4487505;32;20131;-84
2022/08/22 00:19:02;;;;;;;11.20;3.17;;;;;;;21.57;72.38;97849.13;4487532;32;20092;-84
2022/08/22 00:21:32;;;;;;;7.20;2.42;;;;;;;21.57;72.81;97846.44;4473186;32;20081;-85
2022/08/22 00:24:20;;;;;;;7.75;2.78;;;;;;;21.89;71.52;97849.94;4473140;32;20165;-85
2022/08/22 00:27:09;;;;;;;7.43;2.40;;;;;;;22.17;69.89;97851.06;4487312;32;20171;-84
2022/08/22 00:29:41;;;;;;;8.25;2.90;;;;;;;22.30;69.05;97849.63;4473051;32;20155;-85
2022/08/22 00:32:15;;;;;;;8.40;2.60;;;;;;;22.11;70.36;97848.25;4473189;32;20075;-85
2022/08/22 00:35:00;;;;;;;8.60;2.35;;;;;;;21.76;71.39;97850.50;4487406;32;20145;-85
2022/08/22 00:37:34;;;;;;;7.12;2.30;;;;;;;22.19;69.38;97849.03;4473370;32;20146;-84
2022/08/22 00:40:11;;;;;;;6.12;2.28;;;;;;;21.94;70.54;97860.94;4473379;32;20096;-85
2022/08/22 00:42:52;;;;;;;6.90;2.10;;;;;;;22.03;69.53;97848.31;4473068;32;20084;-85
2022/08/22 00:45:35;;;;;;;6.25;2.45;;;;;;;21.75;71.02;97854.19;4487349;32;20104;-84
2022/08/22 00:48:07;;;;;;;8.48;2.60;;;;;;;21.78;70.75;97846.63;4487247;32;20123;-84
2022/08/22 00:51:31;;;;;;;8.63;2.60;;;;;;;21.67;71.08;97849.75;4487056;32;20084;-84
2022/08/22 00:54:21;;;;;;;9.75;2.62;;;;;;;22.08;70.34;97854.81;4404484;32;20085;-85
2022/08/22 00:56:49;;;;;;;8.93;2.70;;;;;;;21.85;70.73;97862.03;4407727;32;20114;-85
2022/08/22 00:59:43;;;;;;;6.37;2.37;;;;;;;22.05;69.69;97859.69;4407637;32;20179;-85
2022/08/22 01:02:27;;;;;;;7.00;2.60;;;;;;;22.09;69.53;97859.13;4362244;32;20091;-85
2022/08/22 01:05:44;;;;;;;7.75;2.03;;;;;;;21.75;70.57;97852.37;4362425;32;20113;-83
2022/08/22 01:08:28;;;;;;;8.15;2.58;;;;;;;21.87;69.82;97858.16;4318151;33;20167;-84
2022/08/22 01:11:00;;;;;;;7.78;2.40;;;;;;;21.80;70.38;97860.69;4318365;33;20544;-85
2022/08/22 01:13:53;;;;;;;8.48;2.65;;;;;;;22.05;69.54;97857.84;4318095;33;20208;-85
2022/08/22 01:16:48;;;;;;;8.80;2.30;;;;;;;21.56;71.50;97867.06;4318031;33;20088;-85
2022/08/22 01:19:38;;;;;;;10.23;2.22;;;;;;;21.54;71.57;97863.72;4318142;33;20130;-85
2022/08/22 01:22:22;;;;;;;7.70;2.30;;;;;;;22.04;69.53;97850.81;4318080;33;20127;-84
2022/08/22 01:25:17;;;;;;;7.43;2.35;;;;;;;21.61;70.78;97850.44;4318127;33;20091;-85
2022/08/22 01:27:56;;;;;;;7.82;2.28;;;;;;;21.82;70.04;97848.97;4318054;33;20092;-83
2022/08/22 01:30:46;;;;;;;6.93;2.10;;;;;;;22.03;69.25;97849.13;4346953;33;20107;-84
2022/08/22 01:33:49;;;;;;;8.85;2.28;;;;;;;21.80;69.91;97857.19;4347744;33;20183;-83
2022/08/22 01:36:23;;;;;;;7.37;2.25;;;;;;;21.90;69.19;97848.91;4347601;33;20125;-83
2022/08/22 01:39:00;;;;;;;6.55;1.95;;;;;;;;;;4369223;32;20180;-83
2022/08/22 01:41:43;;;;;;;7.57;2.17;;;;;;;22.02;68.85;97843.94;4429531;32;20122;-84
2022/08/22 01:44:25;;;;;;;6.90;2.33;;;;;;;21.77;68.81;97842.28;4486888;32;20458;-84
2022/08/22 01:47:00;;;;;;;7.75;1.95;;;;;;;21.74;69.02;97849.84;4486792;32;20427;-83
2022/08/22 01:49:38;;;;;;;7.53;2.20;;;;;;;21.70;69.28;97852.06;4469627;32;20129;-84
2022/08/22 01:52:38;;;;;;;9.07;2.17;;;;;;;21.83;69.34;97848.78;4471026;32;20096;-83
2022/08/22 01:55:19;;;;;;;12.07;2.58;;;;;;;21.85;69.40;97844.09;4465690;32;20101;-83
2022/08/22 01:57:51;;;;;;;11.45;2.10;;;;;;;21.61;70.11;97855.78;4469693;32;20153;-83
2022/08/22 02:00:19;;;;;;;7.60;2.05;;;;;;;21.95;69.05;97847.34;4469750;32;20085;-83
2022/08/22 02:03:10;;;;;;;6.68;2.22;;;;;;;21.66;69.87;97849.91;4470844;32;20100;-83
2022/08/22 02:05:47;;;;;;;7.80;2.40;;;;;;;21.82;69.64;97843.59;4470893;32;20088;-83
2022/08/22 02:08:31;;;;;;;6.75;2.10;;;;;;;21.72;69.89;97850.03;4469821;32;20100;-83
2022/08/22 02:11:48;;;;;;;8.48;2.33;;;;;;;22.07;68.68;97847.75;4470909;32;20141;-83
2022/08/22 02:14:31;;;;;;;7.00;2.47;;;;;;;22.40;67.84;97844.81;4439765;32;20121;-83
2022/08/22 02:17:13;;;;;;;9.23;2.50;;;;;;;22.40;68.07;97841.31;4452874;32;20189;-83
2022/08/22 02:19:48;;;;;;;10.48;2.45;;;;;;;22.37;67.85;97839.84;4439932;32;20173;-83
2022/08/22 02:22:35;;;;;;;7.97;2.37;;;;;;;22.50;67.36;97833.81;4439942;32;20123;-84
2022/08/22 02:25:14;;;;;;;9.63;2.40;;;;;;;22.48;67.03;97838.53;4452715;32;20128;-84
2022/08/22 02:27:53;;;;;;;8.32;2.45;;;;;;;22.65;66.67;97834.69;4440034;32;20172;-84
2022/08/22 02:30:42;;;;;;;10.00;2.80;;;;;;;22.62;66.68;97839.56;4439818;32;20219;-83
2022/08/22 02:33:15;;;;;;;9.52;2.53;;;;;;;22.68;66.79;97830.81;4452502;32;20080;-83
2022/08/22 02:35:58;;;;;;;7.50;2.50;;;;;;;22.84;66.35;97829.78;4439992;32;20504;-83
2022/08/22 02:38:48;;;;;;;9.57;2.50;;;;;;;22.76;66.76;97828.84;4439846;32;20158;-84
2022/08/22 02:41:21;;;;;;;10.40;2.40;;;;;;;22.93;66.32;97826.81;4452471;32;20071;-84
2022/08/22 02:43:53;;;;;;;8.80;2.37;;;;;;;23.03;65.95;97826.56;4426556;32;20105;-83
2022/08/22 02:46:48;;;;;;;7.18;2.55;;;;;;;23.07;65.69;97830.53;4426502;32;20128;-83
2022/08/22 02:49:26;;;;;;;8.55;2.47;;;;;;;23.10;65.59;97824.81;4450654;32;20174;-84
2022/08/22 02:52:07;;;;;;;10.63;2.78;;;;;;;23.18;65.33;97826.56;4470594;32;20155;-83
2022/08/22 02:55:02;;;;;;;7.82;2.37;;;;;;;23.27;65.10;97828.09;4469196;32;20088;-83
2022/08/22 02:57:33;;;;;;;9.25;2.80;;;;;;;23.18;65.32;97826.56;4406365;32;20130;-84
2022/08/22 03:00:17;;;;;;;8.95;2.75;;;;;;;23.29;65.04;97830.59;4393920;32;20175;-83
2022/08/22 03:02:43;;;;;;;7.78;2.40;;;;;;;23.18;65.17;97829.25;4406141;32;20124;-84
2022/08/22 03:05:14;;;;;;;9.05;2.70;;;;;;;23.25;65.06;97830.13;4406221;32;20151;-84
2022/08/22 03:07:44;;;;;;;9.10;2.47;;;;;;;23.05;65.34;97829.91;4406037;32;20128;-84
2022/08/22 03:10:21;;;;;;;7.22;2.60;;;;;;;23.19;64.88;97827.38;4395770;32;20136;-84
2022/08/22 03:13:31;;;;;;;7.97;2.70;;;;;;;22.84;66.16;97832.47;4395849;32;20094;-85
2022/08/22 03:16:16;;;;;;;8.45;2.50;;;;;;;23.20;65.17;97832.56;4362956;32;20319;-84
2022/08/22 03:19:01;;;;;;;7.20;2.58;;;;;;;23.34;64.63;97839.75;4362824;32;20146;-84
2022/08/22 03:21:29;;;;;;;9.90;2.50;;;;;;;23.13;65.33;97831.66;4363098;32;20122;-85
2022/08/22 03:24:06;;;;;;;10.30;2.78;;;;;;;23.26;64.97;97837.19;4363054;32;20162;-84
2022/08/22 03:26:47;;;;;;;7.47;2.58;;;;;;;23.00;65.71;97847.56;4363159;32;20094;-84
2022/08/22 03:29:19;;;;;;;9.90;2.83;;;;;;;23.25;64.98;97837.37;4363015;32;20111;-84
2022/08/22 03:32:03;;;;;;;9.77;2.70;;;;;;;23.24;64.95;97833.03;4350677;32;20147;-84
2022/08/22 03:34:28;;;;;;;10.30;2.87;;;;;;;23.10;65.22;97838.25;4385385;32;20116;-85
2022/08/22 03:37:16;;;;;;;12.88;2.97;;;;;;;23.21;65.01;97850.34;4408186;32;20106;-85
2022/08/22 03:39:45;;;;;;;7.18;2.80;;;;;;;22.68;66.85;97853.13;4395457;32;20217;-85
2022/08/22 03:42:28;;;;;;;8.00;3.12;;;;;;;22.97;65.89;97851.47;4408084;32;20319;-85
2022/08/22 03:45:15;;;;;;;9.15;2.97;;;;;;;23.08;65.85;97850.16;4408083;32;20151;-84
2022/08/22 03:47:50;;;;;;;7.95;3.20;;;;;;;23.17;65.67;97857.13;4408390;32;20098;-85
2022/08/22 03:50:50;;;;;;;7.20;2.62;;;;;;;23.07;65.93;97856.59;4416878;32;20136;-85
2022/08/22 03:53:44;;;;;;;8.00;2.97;;;;;;;23.12;65.54;97857.69;4457969;32;20119;-83
2022/08/22 03:56:21;;;;;;;9.80;3.55;;;;;;;23.22;65.38;97857.41;4487679;32;20088;-83
2022/08/22 03:59:21;;;;;;;11.00;3.30;;;;;;;23.16;65.40;97853.59;4473269;32;20478;-83
2022/08/22 04:02:16;;;;;;;11.38;3.95;;;;;;;23.32;64.85;97854.41;4473083;32;20159;-83
2022/08/22 04:05:06;;;;;;;10.60;3.53;;;;;;;23.35;64.54;97859.41;4487493;32;20092;-83
2022/08/22 04:07:53;;;;;;;10.07;3.47;;;;;;;23.28;64.82;97861.19;4487853;32;20141;-83
2022/08/22 04:10:38;;;;;;;9.93;3.47;;;;;;;23.00;65.54;97861.81;4487666;32;20080;-83
2022/08/22 04:13:19;;;;;;;12.80;3.60;;;;;;;23.17;64.85;97866.00;4473659;32;20184;-84
2022/08/22 04:16:07;;;;;;;10.57;3.60;;;;;;;23.28;64.61;97863.88;4487486;32;20123;-84
2022/08/22 04:19:00;;;;;;;11.38;3.90;;;;;;;23.33;64.95;97862.31;4487121;32;20088;-86
2022/08/22 04:22:14;;;;;;;10.40;3.55;;;;;;;22.76;66.72;97857.56;4473459;32;20092;-86
2022/08/22 04:25:00;;;;;;;10.07;3.92;;;;;;;23.23;65.52;97859.06;4407800;32;20137;-84
2022/08/22 04:27:38;;;;;;;10.23;3.72;;;;;;;23.27;65.17;97865.72;4395191;32;20122;-83
2022/08/22 04:30:28;;;;;;;10.25;4.32;;;;;;;23.33;65.05;97866.81;4395155;32;20486;-84
2022/08/22 04:33:07;;;;;;;11.60;4.53;;;;;;;23.39;64.90;97865.25;4395372;32;20177;-81
2022/08/22 04:35:42;;;;;;;11.15;4.62;;;;;;;23.43;64.75;97869.22;4395046;32;20478;-84
2022/08/22 04:38:26;;;;;;;11.32;4.55;;;;;;;23.31;64.92;97872.41;4407734;32;20346;-83
2022/08/22 04:40:59;;;;;;;12.02;4.93;;;;;;;23.35;64.90;97870.16;4395115;32;20151;-82
2022/08/22 04:43:44;;;;;;;12.55;4.70;;;;;;;23.07;65.68;97878.06;4395148;32;20093;-83
2022/08/22 04:46:31;;;;;;;10.88;4.32;;;;;;;23.21;65.51;97877.22;4397236;32;20580;-83
2022/08/22 04:49:04;;;;;;;11.18;4.43;;;;;;;23.50;65.08;97875.50;4415766;32;20110;-82
2022/08/22 04:51:55;;;;;;;12.32;5.07;;;;;;;23.54;65.16;97874.09;4407768;32;20094;-82
2022/08/22 04:54:21;;;;;;;14.87;5.20;;;;;;;23.74;64.87;97872.50;4401502;32;20094;-82
2022/08/22 04:57:01;;;;;;;13.55;5.07;;;;;;;23.82;64.79;97876.13;4394872;32;20477;-82
2022/08/22 04:59:28;;;;;;;10.32;4.65;;;;;;;23.86;64.65;97874.72;4483900;31;20502;-82
2022/08/22 05:01:57;;;;;;;15.65;5.22;;;;;;;23.83;65.10;97885.84;4477001;32;20103;-83
2022/08/22 05:04:43;;;;;;;13.25;5.28;;;;;;;23.50;65.80;97878.19;4472968;32;20080;-83
2022/08/22 05:07:12;;;;;;;13.18;5.22;;;;;;;23.64;65.15;97879.19;4473040;32;20104;-84
2022/08/22 05:09:44;;;;;;;11.30;4.82;;;;;;;23.92;64.25;97873.94;4487038;32;20131;-84
2022/08/22 05:12:13;;;;;;;11.32;4.97;;;;;;;24.10;63.51;97874.31;4487129;32;20107;-84
2022/08/22 05:14:41;;;;;;;12.15;4.97;;;;;;;24.24;63.22;97875.28;4472842;32;20084;-83
2022/08/22 05:17:08;;;;;;;12.57;5.62;;;;;;;24.31;62.86;97891.50;4472764;32;20105;-84
2022/08/22 05:19:39;;;;;;;12.23;5.12;;;;;;;24.26;62.84;97891.22;4472794;32;20250;-83
2022/08/22 05:22:06;;;;;;;12.23;5.25;;;;;;;24.36;62.58;97888.19;4472716;32;20587;-83
2022/08/22 05:24:41;;;;;;;12.03;4.80;;;;;;;24.18;62.94;97894.88;4487106;32;20072;-83
2022/08/22 05:27:14;;;;;;;13.48;5.72;;;;;;;24.36;62.29;97896.28;4472679;32;20188;-83
2022/08/22 05:29:42;;;;;;;11.75;5.40;;;;;;;24.24;62.65;97898.66;4472712;32;20127;-83
2022/08/22 05:32:13;;;;;;;13.70;5.20;;;;;;;24.22;62.79;97906.94;4471574;32;20111;-81
2022/08/22 05:34:39;;;;;;;11.40;4.70;;;;;;;24.33;62.82;97902.91;4472625;32;20111;-84
2022/08/22 05:37:09;;;;;;;12.70;5.23;;;;;;;24.30;62.65;97903.28;4472582;32;20160;-82
2022/08/22 05:39:36;;;;;;;12.68;5.45;;;;;;;24.36;62.55;97902.53;4486868;32;20107;-81
2022/08/22 05:42:02;;;;;;;11.27;4.80;;;;;;;24.36;62.62;97912.44;4472520;32;20088;-83
2022/08/22 05:44:34;;;;;;;13.20;5.60;;;;;;;24.38;62.57;97913.06;4486697;32;20503;-88
2022/08/22 05:47:04;;;;;;;13.70;5.95;;;;;;;24.43;62.42;97911.47;4466691;32;184167;-84
2022/08/22 05:49:37;;;;;;;14.57;6.05;;;;;;;24.49;61.94;97910.72;4472263;32;20131;-84
2022/08/22 05:52:39;;;;;;;14.95;5.97;;;;;;;24.32;62.20;97914.69;4472760;32;20364;-83
2022/08/22 05:55:16;;;;;;;12.32;5.75;;;;;;;24.46;62.08;97913.78;4486671;32;20140;-87
2022/08/22 05:57:46;;;;;;;13.68;5.70;;;;;;;24.08;63.80;97923.97;4472285;32;20422;-85
2022/08/22 06:00:17;;;;;;;12.52;5.70;;;;;;;24.27;63.43;97919.81;4472377;32;20130;-85
2022/08/22 06:02:52;;;;;;;13.73;5.80;;;;;;;24.48;62.82;97918.97;4472346;32;20105;-84
2022/08/22 06:05:22;;;;;;;12.37;5.87;;;;;;;24.63;62.40;97924.31;4486513;32;20415;-83
2022/08/22 06:07:49;;;;;;;13.38;6.20;;;;;;;24.66;61.82;97924.75;4472199;32;20104;-86
2022/08/22 06:10:25;;;;;;;12.37;5.77;;;;;;;24.73;61.61;97933.72;4472333;32;20092;-85
2022/08/22 06:13:01;;;;;;;12.82;5.70;;;;;;;24.85;61.46;97930.47;4472247;32;20143;-89
2022/08/22 06:15:32;;;;;;;15.32;5.80;;;;;;;24.89;61.38;97932.56;4486293;32;20110;-84
2022/08/22 06:18:05;;;;;;;12.60;5.82;;;;;;;24.96;61.47;97931.81;4472268;32;20108;-83
2022/08/22 06:20:38;;;;;;;15.27;6.15;;;;;;;25.04;61.17;97931.66;4486345;32;20104;-83
2022/08/22 06:23:05;;;;;;;14.70;5.75;;;;;;;25.15;60.74;97936.50;4472149;32;20080;-85
2022/08/22 06:25:32;;;;;;;11.63;5.15;;;;;;;25.04;60.68;97943.25;4472100;32;20126;-86
2022/08/22 06:28:07;;;;;;;12.60;6.05;;;;;;;25.05;60.51;97938.69;4471980;32;20100;-88
2022/08/22 06:30:33;;;;;;;11.43;5.28;;;;;;;25.18;60.11;97940.66;4486166;32;20163;-85
2022/08/22 06:33:09;;;;;;;12.55;5.90;;;;;;;25.24;60.14;97942.59;4471998;32;20089;-86
2022/08/22 06:38:48;;;;;;;14.85;5.68;;;;;;;25.20;59.93;97950.19;4472647;32;20160;-85
2022/08/22 06:41:14;;;;;;;12.25;5.85;;;;;;;25.24;60.29;97947.97;4471634;32;20134;-85
2022/08/22 06:43:42;;;;;;;10.77;4.90;;;;;;;25.36;60.10;97945.56;4478405;31;20459;-83
2022/08/22 06:46:07;;;;;;;14.98;5.87;;;;;;;25.60;59.35;97946.94;4484970;32;20512;-85
2022/08/22 06:48:34;;;;;;;14.77;6.03;;;;;;;25.67;59.43;97947.78;4471345;32;20173;-85
2022/08/22 06:51:00;;;;;;;12.35;5.65;;;;;;;25.46;59.55;97956.81;4487409;32;20107;-85
2022/08/22 06:53:30;;;;;;;13.25;6.18;;;;;;;25.88;58.78;97946.81;4473131;32;20091;-85
2022/08/22 06:55:58;;;;;;;14.87;6.43;;;;;;;26.02;58.47;97943.19;4473823;32;20088;-85
2022/08/22 06:58:30;;;;;;;13.25;6.57;;;;;;;26.34;57.29;97948.00;4473810;32;20459;-85
2022/08/22 07:01:00;;;;;;;12.88;6.45;;;;;;;26.55;55.76;97944.31;4488036;32;20092;-85
2022/08/22 07:03:32;;;;;;;13.65;6.53;;;;;;;26.80;54.96;97942.66;4473936;32;20081;-85
2022/08/22 07:05:58;;;;;;;12.93;6.00;;;;;;;27.01;55.08;97947.00;4473997;32;20107;-85
2022/08/22 07:08:25;;;;;;;12.70;6.32;;;;;;;27.24;54.22;97941.19;4473501;32;20697;-85
2022/08/22 07:11:16;;;;;;;11.50;5.68;;;;;;;27.35;53.80;97939.72;4487996;32;20204;-85
2022/08/22 07:13:52;;;;;;;12.95;6.57;;;;;;;27.64;52.95;97942.91;4487964;32;20481;-85
2022/08/22 07:16:28;;;;;;;16.80;7.00;;;;;;;27.59;52.81;97940.88;4487895;32;20391;-85
2022/08/22 07:18:53;;;;;;;14.82;7.47;;;;;;;27.72;52.38;97944.56;4487964;32;20108;-85
2022/08/22 07:21:28;;;;;;;14.13;6.40;;;;;;;27.85;51.75;97942.66;4473579;32;20109;-85
2022/08/22 07:23:54;;;;;;;13.23;6.00;;;;;;;28.11;51.46;97950.87;4487849;32;20105;-85
2022/08/22 07:26:52;;;;;;;12.77;6.18;;;;;;;28.32;50.98;97955.09;4473580;32;20443;-85
2022/08/22 07:29:36;;;;;;;12.68;6.65;;;;;;;28.30;50.04;97958.06;4423467;32;20176;-85
2022/08/22 07:32:16;;;;;;;14.35;6.25;;;;;;;28.38;50.67;97955.06;4423538;32;20485;-85
2022/08/22 07:35:08;;;;;;;16.10;6.72;;;;;;;28.54;50.59;97961.88;4423460;32;20185;-85
2022/08/22 07:37:52;;;;;;;13.07;6.85;;;;;;;28.56;49.34;97961.66;4421147;32;20105;-85
2022/08/22 07:40:25;;;;;;;13.88;6.90;;;;;;;28.54;49.54;97942.91;4423423;32;20489;-85
2022/08/22 07:42:55;;;;;;;14.60;6.10;;;;;;;28.62;49.16;97949.94;4423406;32;20102;-85
2022/08/22 07:45:48;;;;;;;14.45;6.60;;;;;;;28.65;49.32;97956.78;4410631;32;20081;-85
2022/08/22 07:48:24;;;;;;;12.68;6.30;;;;;;;28.26;50.07;97959.53;4409771;32;20243;-85
2022/08/22 07:51:10;;;;;;;13.60;6.50;;;;;;;28.26;50.68;97961.41;4410545;32;20128;-85
2022/08/22 07:53:48;;;;;;;13.07;6.55;;;;;;;28.33;50.17;97962.19;4422757;32;20133;-85
2022/08/22 07:56:17;;;;;;;13.77;6.57;;;;;;;28.31;50.70;97962.41;4423266;32;20112;-85
2022/08/22 07:58:45;;;;;;;14.20;6.93;;;;;;;28.17;51.19;97963.56;4423276;32;20085;-85
2022/08/22 08:01:16;;;;;;;13.50;6.72;;;;;;;28.00;50.98;97969.44;4410447;32;20613;-85
2022/08/22 08:03:42;;;;;;;13.93;7.22;;;;;;;27.89;51.50;97966.59;4423344;32;20109;-85
2022/08/22 08:06:08;;;;;;;14.55;6.50;;;;;;;27.78;51.53;97968.09;4442306;32;20107;-85
2022/08/22 08:08:41;;;;;;;12.25;6.37;;;;;;;27.51;52.49;97967.34;4487404;32;20072;-85
2022/08/22 08:11:09;;;;;;;13.00;6.30;;;;;;;27.59;52.65;97970.62;4473225;32;20131;-85
2022/08/22 08:13:38;;;;;;;13.98;6.95;;;;;;;27.32;53.21;97969.06;4473185;32;20123;-85
2022/08/22 08:16:06;;;;;;;13.82;7.20;;;;;;;26.85;54.26;97975.31;4487568;32;20436;-85
2022/08/22 08:18:33;;;;;;;13.05;6.50;;;;;;;26.79;54.37;97965.34;4487430;32;20088;-85
2022/08/22 08:21:03;;;;;;;12.93;6.05;;;;;;;27.06;53.90;97976.09;4487337;32;20096;-85
2022/08/22 08:23:31;;;;;;;13.93;6.32;;;;;;;26.93;54.33;97973.44;4487592;32;20140;-85
2022/08/22 08:26:01;;;;;;;13.75;7.05;;;;;;;26.94;54.27;97972.38;4473568;32;20168;-85
2022/08/22 08:28:32;;;;;;;13.68;7.25;;;;;;;26.93;54.03;97978.84;4487294;32;20472;-85
2022/08/22 08:31:13;;;;;;;14.20;6.22;;;;;;;26.75;54.58;97974.88;4473019;32;20191;-85
2022/08/22 08:33:41;;;;;;;13.75;7.00;;;;;;;26.96;54.54;97973.00;4487452;32;20092;-85
2022/08/22 08:36:12;;;;;;;13.68;6.78;;;;;;;26.92;54.37;97972.59;4473117;32;20088;-85
2022/08/22 08:38:45;;;;;;;12.98;6.37;;;;;;;26.82;54.49;97978.41;4487381;32;20102;-86
2022/08/22 08:41:26;;;;;;;15.60;7.03;;;;;;;26.69;55.46;97978.41;4473161;32;20093;-85
2022/08/22 08:43:58;;;;;;;12.50;6.95;;;;;;;26.61;56.01;97981.31;4487484;32;20132;-85
2022/08/22 08:46:42;;;;;;;13.50;6.20;;;;;;;26.62;56.01;97974.88;4473025;32;20097;-86
2022/08/22 08:49:39;;;;;;;15.18;6.87;;;;;;;26.46;56.05;97981.47;4487012;32;20096;-85
2022/08/22 08:52:42;;;;;;;13.90;6.50;;;;;;;26.81;54.87;97975.91;4487229;32;20107;-85
2022/08/22 08:55:31;;;;;;;14.07;7.20;;;;;;;27.04;54.56;97975.50;4487399;32;20118;-85
2022/08/22 08:58:31;;;;;;;14.68;7.00;;;;;;;27.05;53.43;97972.59;4473302;32;20149;-85
2022/08/22 09:01:06;;;;;;;14.20;6.45;;;;;;;27.35;52.82;97976.72;4487237;32;20110;-85
2022/08/22 09:03:49;;;;;;;14.30;7.10;;;;;;;27.39;52.94;97976.13;4487262;32;20136;-85
2022/08/22 09:06:41;;;;;;;13.52;6.50;;;;;;;27.11;52.83;97980.91;4486103;32;20116;-85
2022/08/22 09:09:18;;;;;;;14.87;7.22;;;;;;;27.47;52.79;97977.75;4487156;32;20088;-85
2022/08/22 09:12:14;;;;;;;14.07;6.90;;;;;;;27.78;52.17;97976.19;4487179;32;20080;-85
2022/08/22 09:14:39;;;;;;;12.90;6.55;;;;;;;28.02;51.42;97978.19;4487126;32;20128;-85
2022/08/22 09:17:05;;;;;;;13.75;6.12;;;;;;;28.16;51.51;97970.00;4487090;32;20142;-85
2022/08/22 09:19:42;;;;;;;13.30;6.72;;;;;;;28.16;50.98;97978.12;4486944;32;20084;-85
2022/08/22 09:22:32;;;;;;;14.67;6.77;;;;;;;27.78;50.85;97976.19;4487066;32;20466;-85
2022/08/22 09:25:00;;;;;;;16.08;7.07;;;;;;;28.21;51.10;97972.91;4487025;32;20180;-85
2022/08/22 09:27:36;;;;;;;14.65;6.75;;;;;;;27.78;51.54;97984.31;4486987;32;20116;-85
2022/08/22 09:30:08;;;;;;;15.30;7.47;;;;;;;28.00;50.97;97974.03;4487005;32;20128;-85
2022/08/22 09:32:53;;;;;;;16.65;7.68;;;;;;;27.61;50.97;97979.38;4486875;32;20105;-85
2022/08/22 09:35:43;;;;;;;14.07;6.87;;;;;;;27.95;51.23;97966.59;4472967;32;20131;-86
2022/08/22 09:38:40;;;;;;;14.68;7.12;;;;;;;28.51;50.10;97972.28;4487033;32;20115;-85
2022/08/22 09:41:36;;;;;;;15.15;7.05;;;;;;;28.73;49.18;97964.66;4486938;32;20119;-85
2022/08/22 09:44:14;;;;;;;13.77;6.70;;;;;;;29.00;48.39;97970.69;4394466;32;20108;-85
2022/08/22 09:47:19;;;;;;;13.80;7.93;;;;;;;29.14;48.50;97974.13;4394816;32;20144;-85
2022/08/22 09:49:59;;;;;;;15.35;7.30;;;;;;;29.04;48.10;97969.19;4403996;32;20136;-85
2022/08/22 09:52:42;;;;;;;15.30;7.75;;;;;;;29.12;48.24;97979.78;4394653;32;20086;-85
2022/08/22 09:55:24;;;;;;;14.65;7.10;;;;;;;29.08;48.27;97975.81;4407008;32;20108;-85
2022/08/22 09:57:55;;;;;;;13.75;8.10;;;;;;;29.22;48.71;97976.53;4407239;32;20106;-85
2022/08/22 10:00:24;;;;;;;15.75;8.05;;;;;;;29.12;48.42;97970.78;4394517;32;20542;-86
2022/08/22 10:02:56;;;;;;;16.92;8.65;;;;;;;29.12;48.98;97973.50;4394380;32;20120;-85
2022/08/22 10:05:44;;;;;;;15.82;7.32;;;;;;;28.79;49.23;97972.72;4394430;32;20074;-85
2022/08/22 10:08:23;;;;;;;15.00;7.68;;;;;;;29.02;48.94;97977.53;4406492;32;20127;-85
2022/08/22 10:11:18;;;;;;;17.15;8.85;;;;;;;29.02;49.62;97979.44;4394378;32;20090;-85
2022/08/22 10:13:49;;;;;;;15.95;8.25;;;;;;;29.16;48.77;97978.28;4393949;32;20430;-85
2022/08/22 10:16:36;;;;;;;16.45;7.78;;;;;;;29.18;49.13;97981.59;4406832;32;20112;-85
2022/08/22 10:19:10;;;;;;;16.23;8.18;;;;;;;29.19;49.38;97979.72;4408628;32;20122;-85
2022/08/22 10:22:06;;;;;;;16.85;9.15;;;;;;;29.15;50.55;97984.75;4461373;32;20144;-85
2022/08/22 10:24:36;;;;;;;14.45;8.02;;;;;;;29.09;50.89;97987.50;4488404;32;20080;-85
2022/08/22 10:27:07;;;;;;;14.23;7.35;;;;;;;29.05;50.26;97987.09;4474095;32;20115;-85
2022/08/22 10:29:47;;;;;;;11.98;5.97;;;;;;;29.05;50.30;97989.00;4488308;32;20096;-85
2022/08/22 10:32:34;;;;;;;11.98;4.78;;;;;;;29.04;49.61;97987.34;4474111;32;20184;-85
2022/08/22 10:35:30;;;;;;;12.95;5.18;;;;;;;28.94;49.13;97985.97;4488254;32;20103;-85
2022/08/22 10:38:13;;;;;;;12.68;5.82;;;;;;;29.00;48.01;97982.34;4395769;32;20094;-85
2022/08/22 10:40:47;;;;;;;12.57;6.32;;;;;;;29.17;48.23;97987.25;4383348;32;20180;-85
2022/08/22 10:43:18;;;;;;;11.85;5.57;;;;;;;29.20;48.53;97989.50;4396268;32;20132;-85
2022/08/22 10:45:46;;;;;;;11.35;5.68;;;;;;;29.32;47.45;97987.72;4396086;32;20124;-85
2022/08/22 10:48:40;;;;;;;13.07;5.68;;;;;;;29.54;48.08;97987.31;4395818;32;20089;-85
2022/08/22 10:51:30;;;;;;;11.50;6.37;;;;;;;29.78;47.05;97993.72;4408258;32;20132;-85
2022/08/22 10:54:02;;;;;;;15.68;6.75;;;;;;;29.95;46.68;97983.91;4408597;32;20427;-85
2022/08/22 10:56:37;;;;;;;12.90;5.90;;;;;;;30.04;46.13;97986.28;4395840;32;20102;-85
2022/08/22 10:59:12;;;;;;;11.40;5.68;;;;;;;30.04;46.07;97984.44;4395873;32;20579;-85
2022/08/22 11:01:45;;;;;;;13.15;6.32;;;;;;;30.28;45.30;97981.81;4408380;32;20289;-85
2022/08/22 11:04:36;;;;;;;14.45;6.50;;;;;;;30.31;44.50;97973.22;4395928;32;20183;-85
2022/08/22 11:07:37;;;;;;;12.37;6.35;;;;;;;30.50;43.67;97976.69;4401513;32;20086;-85
2022/08/22 11:10:28;;;;;;;12.82;6.30;;;;;;;30.63;43.36;97970.25;4408364;32;20112;-85
2022/08/22 11:13:21;;;;;;;12.85;6.60;;;;;;;30.30;44.71;97979.69;4348323;33;20088;-85
2022/08/22 11:15:58;;;;;;;12.77;6.10;;;;;;;30.65;43.42;97971.66;4389399;32;20114;-85
2022/08/22 11:18:32;;;;;;;12.02;6.18;;;;;;;30.78;43.02;97974.16;4395696;32;20117;-86
2022/08/22 11:21:11;;;;;;;12.82;6.10;;;;;;;30.26;42.49;97973.06;4408168;32;20102;-85
2022/08/22 11:24:07;;;;;;;12.73;5.72;;;;;;;30.21;44.59;97978.34;4395584;32;20147;-86
2022/08/22 11:26:38;;;;;;;11.68;5.12;;;;;;;30.40;44.25;97976.44;4408321;32;20106;-85
2022/08/22 11:29:23;;;;;;;10.02;5.12;;;;;;;30.51;42.60;97976.47;4407344;32;20126;-85
2022/08/22 11:32:00;;;;;;;10.57;4.35;;;;;;;30.59;42.98;97980.75;4395617;32;20175;-86
2022/08/22 11:34:53;;;;;;;10.50;4.50;;;;;;;30.72;41.77;97975.09;4408280;32;20114;-85
2022/08/22 11:37:33;;;;;;;11.35;5.45;;;;;;;30.70;41.84;97971.78;4408222;32;20105;-86
2022/08/22 11:40:05;;;;;;;12.35;5.43;;;;;;;30.70;41.76;97970.97;4408312;32;20536;-85
2022/08/22 11:42:44;;;;;;;11.68;5.60;;;;;;;30.71;41.59;97967.19;4408206;32;20102;-85
2022/08/22 11:45:22;;;;;;;11.30;5.20;;;;;;;30.84;42.24;97971.56;4395472;32;20133;-85
2022/08/22 11:47:56;;;;;;;11.40;5.47;;;;;;;30.85;41.69;97968.63;4408341;32;20136;-86
2022/08/22 11:50:57;;;;;;;10.55;5.22;;;;;;;30.96;40.61;97964.28;4461686;32;20156;-85
2022/08/22 11:53:38;;;;;;;12.43;6.10;;;;;;;31.11;40.62;97959.19;4473827;32;20088;-85
2022/08/22 11:56:30;;;;;;;11.05;5.43;;;;;;;31.22;40.41;97959.47;4473721;32;20105;-85
2022/08/22 11:59:00;;;;;;;10.35;5.00;;;;;;;30.84;40.63;97958.81;4473804;32;20783;-85
2022/08/22 12:01:28;;;;;;;10.43;5.07;;;;;;;31.05;40.80;97956.63;4473403;32;20139;-85
2022/08/22 12:03:59;;;;;;;12.60;5.30;;;;;;;31.02;41.02;97951.63;4487636;32;20404;-86
2022/08/22 12:06:34;;;;;;;11.77;5.57;;;;;;;30.85;40.67;97949.59;4487587;32;20141;-86
2022/08/22 12:09:15;;;;;;;11.25;5.97;;;;;;;30.56;42.14;97949.44;4487567;32;20131;-85
2022/08/22 12:12:00;;;;;;;11.88;5.43;;;;;;;30.49;41.06;97954.12;4487565;32;20110;-85
2022/08/22 12:14:32;;;;;;;12.45;5.45;;;;;;;30.25;41.14;97955.09;4473332;32;20084;-85
2022/08/22 12:17:28;;;;;;;12.85;5.37;;;;;;;29.92;41.56;97953.66;4473312;32;20161;-85
2022/08/22 12:20:21;;;;;;;13.32;5.50;;;;;;;29.66;42.47;97960.22;4487400;32;20096;-85
2022/08/22 12:22:55;;;;;;;12.75;6.25;;;;;;;29.44;43.06;97957.13;4487400;32;20412;-85
2022/08/22 12:25:26;;;;;;;14.50;6.07;;;;;;;29.20;43.84;97957.78;4487583;32;20153;-85
2022/08/22 12:28:12;;;;;;;12.25;5.55;;;;;;;28.91;45.11;97958.44;4473076;32;20100;-86